createdAt,value
2018-07-06T00:00:07.030Z,17.02
2018-07-06T00:03:28.931Z,17.65
2018-07-06T00:06:50.819Z,18.20
2018-07-06T00:10:12.565Z,17.17
2018-07-06T00:13:34.097Z,21.73
2018-07-06T00:16:55.612Z,13.22
2018-07-06T00:20:17.341Z,16.02
2018-07-06T00:23:38.934Z,16.60
2018-07-06T00:27:00.775Z,14.87
2018-07-06T00:30:22.657Z,18.92
2018-07-06T00:33:44.512Z,22.17
2018-07-06T00:37:06.159Z,16.15
2018-07-06T00:40:27.734Z,17.42
2018-07-06T00:43:49.739Z,15.65
2018-07-06T00:47:11.459Z,18.23
2018-07-06T00:50:33.385Z,14.18
2018-07-06T00:53:54.628Z,15.08
2018-07-06T00:57:16.238Z,22.00
2018-07-06T01:00:37.960Z,16.42
2018-07-06T01:03:59.738Z,19.82
2018-07-06T01:07:21.956Z,16.23
2018-07-06T01:10:43.604Z,18.25
2018-07-06T01:14:05.147Z,20.27
2018-07-06T01:17:27.099Z,14.63
2018-07-06T01:20:48.424Z,17.70
2018-07-06T01:24:10.359Z,18.25
2018-07-06T01:27:32.158Z,15.18
2018-07-06T01:30:54.351Z,21.62
2018-07-06T01:34:16.047Z,19.25
2018-07-06T01:37:37.917Z,19.00
2018-07-06T01:40:59.916Z,18.50
2018-07-06T01:44:21.513Z,32.00
2018-07-06T01:47:43.517Z,16.07
2018-07-06T01:51:05.367Z,22.30
2018-07-06T01:54:26.927Z,19.57
2018-07-06T01:57:48.737Z,20.05
2018-07-06T02:01:10.543Z,18.37
2018-07-06T02:04:32.023Z,20.17
2018-07-06T02:07:53.957Z,20.85
2018-07-06T02:11:16.311Z,21.10
2018-07-06T02:14:37.696Z,17.25
2018-07-06T02:17:59.707Z,18.73
2018-07-06T02:21:21.425Z,19.30
2018-07-06T02:24:43.348Z,17.98
2018-07-06T02:28:05.214Z,21.27
2018-07-06T02:31:27.022Z,19.25
2018-07-06T02:34:48.990Z,18.27
2018-07-06T02:38:10.101Z,19.05
2018-07-06T02:41:31.804Z,21.77
2018-07-06T02:44:53.648Z,17.85
2018-07-06T02:48:15.416Z,17.07
2018-07-06T02:51:37.323Z,19.37
2018-07-06T02:54:59.467Z,18.02
2018-07-06T02:58:21.812Z,20.20
2018-07-06T03:01:43.208Z,23.27
2018-07-06T03:05:04.930Z,21.57
2018-07-06T03:08:27.222Z,16.05
2018-07-06T03:11:48.744Z,19.17
2018-07-06T03:15:10.074Z,22.58
2018-07-06T03:18:31.978Z,22.07
2018-07-06T03:21:53.876Z,21.82
2018-07-06T03:25:15.932Z,24.82
2018-07-06T03:28:37.704Z,24.32
2018-07-06T03:31:59.515Z,24.52
2018-07-06T03:35:21.271Z,25.80
2018-07-06T03:38:43.162Z,30.68
2018-07-06T03:42:05.050Z,25.95
2018-07-06T03:45:27.632Z,22.70
2018-07-06T03:48:49.335Z,21.15
2018-07-06T03:52:11.434Z,18.70
2018-07-06T03:55:33.108Z,24.70
2018-07-06T03:58:54.744Z,20.43
2018-07-06T04:02:16.689Z,19.55
2018-07-06T04:05:38.952Z,20.43
2018-07-06T04:09:00.851Z,20.52
2018-07-06T04:12:22.912Z,24.02
2018-07-06T04:15:44.192Z,22.05
2018-07-06T04:19:12.455Z,20.20
2018-07-06T04:22:34.616Z,20.43
2018-07-06T04:25:56.171Z,23.65
2018-07-06T04:29:17.857Z,21.68
2018-07-06T04:32:39.754Z,23.07
2018-07-06T04:36:01.103Z,18.67
2018-07-06T04:39:23.103Z,18.70
2018-07-06T04:42:45.203Z,23.12
2018-07-06T04:46:06.418Z,19.95
2018-07-06T04:49:28.421Z,16.75
2018-07-06T04:52:50.161Z,23.85
2018-07-06T04:56:12.359Z,17.52
2018-07-06T04:59:33.736Z,23.55
2018-07-06T05:02:55.542Z,14.10
2018-07-06T05:06:17.407Z,18.12
2018-07-06T05:09:40.129Z,18.10
2018-07-06T05:13:01.484Z,14.25
2018-07-06T05:16:23.217Z,18.55
2018-07-06T05:19:45.361Z,23.05
2018-07-06T05:23:06.838Z,23.83
2018-07-06T05:26:28.540Z,18.52
2018-07-06T05:29:50.455Z,19.05
2018-07-06T05:33:12.624Z,18.02
2018-07-06T05:36:34.311Z,17.23
2018-07-06T05:39:56.211Z,24.02
2018-07-06T05:43:17.810Z,19.98
2018-07-06T05:46:39.624Z,20.68
2018-07-06T05:50:01.222Z,17.67
2018-07-06T05:53:23.179Z,16.35
2018-07-06T05:56:44.878Z,17.65
2018-07-06T06:00:07.050Z,15.55
2018-07-06T06:03:29.258Z,19.48
2018-07-06T06:06:50.862Z,20.10
2018-07-06T06:10:01.753Z,21.02
2018-07-06T06:13:12.478Z,19.40
2018-07-06T06:16:23.128Z,18.95
2018-07-06T06:19:34.210Z,18.90
2018-07-06T06:22:44.888Z,18.52
2018-07-06T06:25:55.860Z,19.02
2018-07-06T06:29:06.615Z,14.78
2018-07-06T06:32:17.508Z,13.70
2018-07-06T06:35:28.177Z,21.75
2018-07-06T06:38:39.110Z,17.45
2018-07-06T06:41:49.917Z,18.90
2018-07-06T06:45:00.829Z,15.65
2018-07-06T06:48:11.570Z,15.23
2018-07-06T06:51:22.367Z,15.88
2018-07-06T06:54:33.142Z,19.57
2018-07-06T06:57:44.016Z,15.95
2018-07-06T07:00:54.759Z,16.65
2018-07-06T07:04:05.495Z,31.52
2018-07-06T07:07:15.518Z,18.73
2018-07-06T07:10:26.661Z,15.65
2018-07-06T07:13:37.099Z,17.73
2018-07-06T07:16:47.245Z,22.42
2018-07-06T07:19:58.057Z,20.40
2018-07-06T07:23:08.460Z,19.12
2018-07-06T07:26:18.938Z,22.87
2018-07-06T07:29:29.799Z,19.20
2018-07-06T07:32:39.994Z,22.15
2018-07-06T07:35:50.842Z,22.87
2018-07-06T07:39:01.778Z,16.80
2018-07-06T07:42:12.760Z,18.65
2018-07-06T07:45:23.241Z,22.65
2018-07-06T07:48:34.013Z,22.90
2018-07-06T07:51:58.176Z,22.25
2018-07-06T07:55:08.897Z,21.50
2018-07-06T07:58:19.668Z,20.57
2018-07-06T08:01:30.298Z,22.52
2018-07-06T08:04:40.903Z,31.23
2018-07-06T08:07:51.644Z,28.77
2018-07-06T08:11:03.109Z,17.50
2018-07-06T08:14:13.342Z,29.07
2018-07-06T08:17:23.937Z,26.40
2018-07-06T08:20:35.745Z,26.40
2018-07-06T08:23:45.843Z,21.55
2018-07-06T08:26:56.792Z,25.88
2018-07-06T08:30:07.360Z,23.22
2018-07-06T08:33:17.976Z,25.82
2018-07-06T08:37:52.573Z,26.55
2018-07-06T08:41:03.275Z,25.97
2018-07-06T08:44:13.116Z,20.23
2018-07-06T08:47:23.609Z,23.32
2018-07-06T08:50:34.040Z,31.82
2018-07-06T08:53:44.145Z,20.70
2018-07-06T08:56:54.032Z,21.55
2018-07-06T09:00:03.889Z,23.90
2018-07-06T09:03:14.800Z,28.15
2018-07-06T09:06:24.907Z,29.77
2018-07-06T09:09:35.509Z,30.27
2018-07-06T09:12:46.607Z,26.62
2018-07-06T09:15:56.931Z,22.67
2018-07-06T09:19:07.774Z,30.68
2018-07-06T09:22:18.338Z,28.52
2018-07-06T09:25:28.990Z,35.63
2018-07-06T09:28:39.752Z,29.05
2018-07-06T09:31:49.736Z,28.12
2018-07-06T09:35:00.557Z,23.42
2018-07-06T09:38:11.059Z,29.50
2018-07-06T09:41:21.000Z,24.30
2018-07-06T09:44:31.924Z,30.43
2018-07-06T09:47:41.855Z,34.92
2018-07-06T09:50:52.801Z,43.08
2018-07-06T09:54:03.142Z,36.08
2018-07-06T09:57:13.259Z,35.50
2018-07-06T10:00:28.432Z,35.35
2018-07-06T10:03:38.930Z,28.02
2018-07-06T10:06:49.658Z,40.23
2018-07-06T10:10:00.116Z,32.98
2018-07-06T10:13:11.754Z,37.28
2018-07-06T10:16:22.684Z,32.75
2018-07-06T10:19:32.889Z,36.40
2018-07-06T10:22:43.971Z,37.25
2018-07-06T10:25:54.800Z,35.35
2018-07-06T10:30:14.318Z,35.23
2018-07-06T10:33:24.744Z,32.42
2018-07-06T10:36:35.580Z,39.30
2018-07-06T10:39:46.407Z,35.15
2018-07-06T10:42:56.564Z,33.55
2018-07-06T10:46:07.236Z,30.02
2018-07-06T10:49:18.267Z,36.05
2018-07-06T10:52:29.063Z,24.52
2018-07-06T10:55:39.546Z,20.75
2018-07-06T10:58:50.295Z,24.92
2018-07-06T11:02:01.107Z,30.27
2018-07-06T11:05:12.110Z,28.07
2018-07-06T11:08:22.472Z,25.75
2018-07-06T11:11:33.204Z,21.62
2018-07-06T11:14:44.459Z,27.67
2018-07-06T11:17:54.894Z,18.05
2018-07-06T11:21:05.243Z,24.57
2018-07-06T11:24:16.282Z,29.52
2018-07-06T11:27:26.994Z,23.75
2018-07-06T11:30:37.699Z,29.07
2018-07-06T11:33:48.327Z,24.60
2018-07-06T11:36:59.280Z,26.50
2018-07-06T11:40:10.064Z,26.60
2018-07-06T11:43:20.819Z,23.40
2018-07-06T11:46:31.114Z,28.62
2018-07-06T11:49:41.005Z,21.70
2018-07-06T11:52:51.935Z,27.32
2018-07-06T11:56:02.457Z,22.22
2018-07-06T11:59:13.219Z,27.50
2018-07-06T12:02:23.095Z,20.72
2018-07-06T12:05:33.445Z,25.27
2018-07-06T12:08:44.270Z,26.42
2018-07-06T12:11:54.238Z,20.05
2018-07-06T12:15:06.167Z,25.27
2018-07-06T12:18:17.134Z,33.58
2018-07-06T12:21:27.785Z,21.48
2018-07-06T12:24:38.692Z,19.55
2018-07-06T12:27:49.723Z,17.67
2018-07-06T12:31:00.345Z,24.32
2018-07-06T12:34:10.862Z,21.95
2018-07-06T12:37:21.658Z,27.48
2018-07-06T12:40:33.641Z,24.40
2018-07-06T12:43:44.139Z,30.43
2018-07-06T12:46:54.932Z,19.35
2018-07-06T12:50:06.262Z,23.77
2018-07-06T12:53:16.307Z,21.02
2018-07-06T12:56:26.960Z,19.65
2018-07-06T12:59:37.653Z,21.77
2018-07-06T13:02:48.239Z,23.70
2018-07-06T13:05:58.792Z,17.77
2018-07-06T13:09:09.355Z,20.92
2018-07-06T13:12:20.146Z,24.65
2018-07-06T13:15:31.127Z,21.60
2018-07-06T13:18:41.340Z,21.73
2018-07-06T13:21:51.449Z,25.15
2018-07-06T13:25:02.059Z,18.65
2018-07-06T13:28:12.264Z,17.73
2018-07-06T13:31:22.775Z,17.27
2018-07-06T13:34:33.717Z,18.17
2018-07-06T13:37:44.437Z,21.62
2018-07-06T13:40:55.103Z,22.93
2018-07-06T13:44:05.314Z,19.00
2018-07-06T13:47:16.347Z,18.80
2018-07-06T13:50:26.995Z,16.73
2018-07-06T13:53:37.762Z,19.57
2018-07-06T13:56:48.814Z,16.62
2018-07-06T13:59:59.163Z,21.68
2018-07-06T14:03:09.990Z,19.37
2018-07-06T14:06:20.083Z,20.25
2018-07-06T14:09:32.794Z,17.15
2018-07-06T14:12:43.822Z,18.48
2018-07-06T14:15:54.675Z,16.25
2018-07-06T14:19:05.893Z,16.17
2018-07-06T14:22:18.508Z,16.93
2018-07-06T14:25:28.940Z,18.98
2018-07-06T14:28:39.570Z,23.38
2018-07-06T14:31:50.646Z,17.75
2018-07-06T14:35:01.176Z,20.30
2018-07-06T14:38:12.313Z,19.27
2018-07-06T14:41:23.013Z,18.48
2018-07-06T14:44:34.022Z,18.35
2018-07-06T14:47:44.356Z,18.52
2018-07-06T14:50:57.116Z,16.55
2018-07-06T14:54:07.982Z,19.12
2018-07-06T14:57:17.969Z,15.20
2018-07-06T15:00:29.075Z,13.18
2018-07-06T15:03:40.481Z,19.45
2018-07-06T15:06:50.600Z,13.80
2018-07-06T15:10:01.224Z,19.85
2018-07-06T15:13:11.846Z,18.42
2018-07-06T15:16:23.049Z,16.52
2018-07-06T15:19:33.312Z,15.28
2018-07-06T15:22:44.595Z,17.48
2018-07-06T15:25:55.039Z,16.17
2018-07-06T15:29:05.562Z,14.98
2018-07-06T15:32:16.221Z,15.70
2018-07-06T15:35:26.633Z,14.07
2018-07-06T15:38:37.373Z,13.98
2018-07-06T15:41:48.094Z,16.25
2018-07-06T15:44:58.840Z,21.30
2018-07-06T15:48:09.618Z,16.95
2018-07-06T15:51:20.936Z,16.65
2018-07-06T15:54:31.137Z,22.17
2018-07-06T15:57:45.748Z,18.67
2018-07-06T16:00:56.563Z,16.17
2018-07-06T16:04:07.309Z,18.35
2018-07-06T16:07:18.091Z,13.68
2018-07-06T16:10:28.749Z,15.13
2018-07-06T16:13:39.641Z,20.92
2018-07-06T16:16:50.543Z,16.12
2018-07-06T16:20:01.230Z,15.93
2018-07-06T16:23:12.298Z,17.90
2018-07-06T16:26:23.189Z,13.68
2018-07-06T16:29:33.923Z,16.05
2018-07-06T16:32:44.491Z,18.25
2018-07-06T16:35:55.784Z,17.35
2018-07-06T16:39:06.451Z,17.20
2018-07-06T16:42:16.539Z,13.85
2018-07-06T16:45:27.366Z,18.95
2018-07-06T16:48:38.272Z,18.37
2018-07-06T16:51:49.346Z,17.90
2018-07-06T16:54:59.945Z,18.70
2018-07-06T16:58:10.468Z,17.67
2018-07-06T17:01:21.016Z,21.10
2018-07-06T17:04:33.880Z,18.70
2018-07-06T17:07:44.359Z,14.83
2018-07-06T17:10:55.587Z,21.12
2018-07-06T17:14:05.853Z,20.88
2018-07-06T17:17:17.092Z,16.20
2018-07-06T17:20:27.377Z,15.63
2018-07-06T17:23:38.337Z,17.27
2018-07-06T17:26:48.932Z,21.12
2018-07-06T17:29:59.770Z,15.55
2018-07-06T17:33:10.485Z,17.02
2018-07-06T17:36:21.204Z,15.25
2018-07-06T17:39:31.971Z,17.12
2018-07-06T17:42:43.053Z,22.25
2018-07-06T17:45:53.486Z,15.08
2018-07-06T17:49:03.979Z,17.30
2018-07-06T17:52:14.966Z,21.52
2018-07-06T17:55:25.550Z,15.68
2018-07-06T17:58:35.692Z,14.90
2018-07-06T18:01:46.673Z,19.05
2018-07-06T18:04:57.244Z,17.52
2018-07-06T18:08:08.135Z,16.73
2018-07-06T18:11:18.802Z,17.67
2018-07-06T18:14:29.620Z,15.80
2018-07-06T18:17:41.450Z,14.23
2018-07-06T18:20:52.194Z,15.75
2018-07-06T18:24:02.720Z,14.13
2018-07-06T18:27:13.409Z,16.15
2018-07-06T18:30:24.082Z,13.62
2018-07-06T18:33:35.051Z,17.90
2018-07-06T18:36:45.617Z,14.00
2018-07-06T18:39:56.366Z,15.75
2018-07-06T18:43:07.073Z,18.10
2018-07-06T18:46:17.927Z,15.28
2018-07-06T18:49:29.004Z,12.03
2018-07-06T18:52:39.357Z,13.58
2018-07-06T18:55:49.834Z,12.80
2018-07-06T18:58:59.843Z,11.85
2018-07-06T19:02:10.996Z,14.55
2018-07-06T19:05:22.939Z,14.23
2018-07-06T19:08:33.442Z,15.68
2018-07-06T19:11:43.520Z,12.43
2018-07-06T19:14:54.201Z,13.95
2018-07-06T19:18:05.118Z,13.48
2018-07-06T19:21:15.271Z,14.55
2018-07-06T19:24:26.230Z,11.90
2018-07-06T19:27:37.112Z,15.00
2018-07-06T19:30:50.789Z,13.15
2018-07-06T19:34:01.547Z,13.30
2018-07-06T19:37:12.640Z,12.30
2018-07-06T19:40:23.112Z,14.75
2018-07-06T19:43:33.960Z,14.35
2018-07-06T19:46:44.751Z,11.68
2018-07-06T19:49:55.366Z,12.23
2018-07-06T19:53:06.299Z,15.93
2018-07-06T19:56:17.107Z,16.65
2018-07-06T19:59:27.191Z,17.02
2018-07-06T20:02:38.063Z,22.20
2018-07-06T20:05:48.703Z,13.03
2018-07-06T20:08:59.196Z,11.90
2018-07-06T20:12:09.948Z,12.65
2018-07-06T20:15:20.807Z,12.50
2018-07-06T20:18:31.788Z,17.37
2018-07-06T20:21:42.183Z,12.73
2018-07-06T20:24:53.055Z,15.38
2018-07-06T20:28:04.003Z,10.75
2018-07-06T20:31:14.736Z,15.30
2018-07-06T20:34:25.298Z,12.10
2018-07-06T20:37:36.334Z,13.15
2018-07-06T20:40:47.014Z,15.15
2018-07-06T20:43:58.140Z,13.05
2018-07-06T20:47:08.791Z,11.85
2018-07-06T20:50:19.375Z,14.95
2018-07-06T20:53:30.093Z,13.98
2018-07-06T20:56:40.808Z,12.43
2018-07-06T20:59:51.891Z,13.00
2018-07-06T21:03:02.624Z,14.87
2018-07-06T21:06:13.083Z,13.78
2018-07-06T21:09:23.821Z,12.95
2018-07-06T21:12:34.649Z,13.85
2018-07-06T21:15:45.319Z,13.32
2018-07-06T21:18:56.501Z,13.58
2018-07-06T21:22:07.355Z,12.63
2018-07-06T21:25:17.735Z,12.28
2018-07-06T21:28:28.282Z,17.57
2018-07-06T21:31:39.878Z,12.13
2018-07-06T21:34:50.092Z,15.03
2018-07-06T21:38:00.659Z,12.60
2018-07-06T21:41:11.328Z,12.43
2018-07-06T21:44:21.879Z,14.15
2018-07-06T21:47:32.653Z,16.60
2018-07-06T21:50:43.298Z,11.97
2018-07-06T21:53:53.912Z,12.23
2018-07-06T21:57:04.447Z,13.43
2018-07-06T22:00:15.328Z,12.68
2018-07-06T22:03:26.267Z,12.18
2018-07-06T22:06:36.884Z,12.50
2018-07-06T22:09:47.340Z,14.05
2018-07-06T22:12:58.390Z,13.20
2018-07-06T22:16:09.183Z,12.80
2018-07-06T22:19:20.383Z,12.00
2018-07-06T22:22:30.919Z,13.38
2018-07-06T22:25:42.692Z,16.97
2018-07-06T22:28:53.667Z,15.20
2018-07-06T22:32:04.342Z,14.33
2018-07-06T22:35:15.078Z,13.88
2018-07-06T22:38:25.872Z,18.35
2018-07-06T22:41:36.437Z,11.73
2018-07-06T22:44:47.208Z,18.42
2018-07-06T22:47:57.896Z,12.53
2018-07-06T22:51:08.893Z,12.15
2018-07-06T22:54:19.978Z,13.58
2018-07-06T22:57:30.628Z,14.18
2018-07-06T23:00:41.891Z,14.30
2018-07-06T23:03:52.178Z,21.77
2018-07-06T23:07:03.125Z,15.15
2018-07-06T23:10:13.936Z,14.20
2018-07-06T23:13:24.510Z,15.30
2018-07-06T23:16:35.213Z,14.50
2018-07-06T23:19:46.544Z,17.23
2018-07-06T23:23:01.549Z,12.55
2018-07-06T23:26:11.904Z,13.13
2018-07-06T23:29:22.502Z,12.35
2018-07-06T23:32:32.627Z,13.48
2018-07-06T23:35:43.781Z,13.53
2018-07-06T23:38:54.270Z,14.55
2018-07-06T23:42:05.173Z,13.13
2018-07-06T23:45:16.043Z,13.18
2018-07-06T23:48:26.678Z,12.58
2018-07-06T23:51:38.367Z,14.73
2018-07-06T23:54:50.999Z,13.72
2018-07-06T23:58:01.720Z,13.00
